Time,TemperatureF,DewpointF,PressureIn,WindDirection,WindDirectionDegrees,WindSpeedMPH,WindSpeedGustMPH,Humidity,HourlyPrecipIn,Conditions,Clouds,dailyrainin,SolarRadiationWatts/m^2,SoftwareType,DateUTC
2013-01-11 00:22:00,24.0,21.0,-100.00,South,182,2.0,6.0,88,0.00,,,0.00,0.000000,,2013-01-11 09:22:00,
2013-01-11 00:32:00,24.0,21.0,-100.00,South,182,2.0,6.0,88,0.00,,,0.00,0.000000,,2013-01-11 09:32:00,
2013-01-11 00:42:00,24.0,21.0,-100.00,South,182,2.0,6.0,88,0.00,,,0.00,0.000000,,2013-01-11 09:42:00,
2013-01-11 00:52:00,24.0,21.0,-100.00,South,182,2.0,6.0,88,0.00,,,0.00,0.000000,,2013-01-11 09:52:00,
2013-01-11 01:22:00,26.0,17.0,-100.00,North,3,5.0,14.0,68,0.00,,,0.00,0.000000,,2013-01-11 10:22:00,
2013-01-11 01:32:00,26.0,17.0,-100.00,North,3,5.0,14.0,68,0.00,,,0.00,0.000000,,2013-01-11 10:32:00,
2013-01-11 01:42:00,26.0,17.0,-100.00,North,3,5.0,14.0,68,0.00,,,0.00,0.000000,,2013-01-11 10:42:00,
2013-01-11 01:52:00,26.0,17.0,-100.00,North,3,5.0,14.0,68,0.00,,,0.00,0.000000,,2013-01-11 10:52:00,
2013-01-11 02:22:00,28.0,15.0,-100.00,SW,233,4.0,20.0,57,0.00,,,0.00,0.000000,,2013-01-11 11:22:00,
2013-01-11 02:32:00,28.0,15.0,-100.00,SW,233,4.0,20.0,57,0.00,,,0.00,0.000000,,2013-01-11 11:32:00,
2013-01-11 02:42:00,28.0,15.0,-100.00,SW,233,4.0,20.0,57,0.00,,,0.00,0.000000,,2013-01-11 11:42:00,
2013-01-11 02:52:00,28.0,15.0,-100.00,SW,233,4.0,20.0,57,0.00,,,0.00,0.000000,,2013-01-11 11:52:00,
2013-01-11 03:22:00,32.0,16.0,-100.00,SSE,166,6.0,19.0,52,0.00,,,-99.99,0.000000,,2013-01-11 12:22:00,
2013-01-11 03:32:00,32.0,16.0,-100.00,SSE,166,6.0,19.0,52,0.00,,,-99.99,0.000000,,2013-01-11 12:32:00,
2013-01-11 03:42:00,32.0,16.0,-100.00,SSE,166,6.0,19.0,52,0.00,,,-99.99,0.000000,,2013-01-11 12:42:00,
2013-01-11 03:52:00,32.0,16.0,-100.00,SSE,166,6.0,19.0,52,0.00,,,-99.99,0.000000,,2013-01-11 12:52:00,
2013-01-11 04:22:00,29.0,14.0,-100.00,WSW,238,4.0,18.0,54,0.00,,,-99.99,0.000000,,2013-01-11 13:22:00,
2013-01-11 04:33:00,29.0,14.0,-100.00,WSW,238,4.0,18.0,54,0.00,,,-99.99,0.000000,,2013-01-11 13:33:00,
2013-01-11 04:42:00,29.0,14.0,-100.00,WSW,238,4.0,18.0,54,0.00,,,-99.99,0.000000,,2013-01-11 13:42:00,
2013-01-11 04:52:00,29.0,14.0,-100.00,WSW,238,4.0,18.0,54,0.00,,,-99.99,0.000000,,2013-01-11 13:52:00,
2013-01-11 05:22:00,34.0,20.0,-100.00,ENE,66,7.0,20.0,55,0.00,,,0.00,0.000000,,2013-01-11 14:22:00,
2013-01-11 05:33:00,34.0,20.0,-100.00,ENE,66,7.0,20.0,55,0.00,,,0.00,0.000000,,2013-01-11 14:33:00,
2013-01-11 05:42:00,34.0,20.0,-100.00,ENE,66,7.0,20.0,55,0.00,,,0.00,0.000000,,2013-01-11 14:42:00,
2013-01-11 05:53:00,34.0,20.0,-100.00,ENE,66,7.0,20.0,55,0.00,,,0.00,0.000000,,2013-01-11 14:53:00,
2013-01-11 06:23:00,30.0,17.0,-100.00,SSW,201,4.0,17.0,57,0.00,,,0.00,0.000000,,2013-01-11 15:23:00,
2013-01-11 06:32:00,30.0,17.0,-100.00,SSW,201,4.0,17.0,57,0.00,,,0.00,0.000000,,2013-01-11 15:32:00,
2013-01-11 06:42:00,30.0,17.0,-100.00,SSW,201,4.0,17.0,57,0.00,,,0.00,0.000000,,2013-01-11 15:42:00,
2013-01-11 06:52:00,30.0,17.0,-100.00,SSW,201,4.0,17.0,57,0.00,,,0.00,0.000000,,2013-01-11 15:52:00,
2013-01-11 07:22:00,28.0,18.0,-100.00,South,183,4.0,15.0,66,0.00,,,0.00,0.000000,,2013-01-11 16:22:00,
2013-01-11 07:32:00,28.0,18.0,-100.00,South,183,4.0,15.0,66,0.00,,,0.00,0.000000,,2013-01-11 16:32:00,
2013-01-11 07:42:00,28.0,18.0,-100.00,South,183,4.0,15.0,66,0.00,,,0.00,0.000000,,2013-01-11 16:42:00,
2013-01-11 07:52:00,28.0,18.0,-100.00,South,183,4.0,15.0,66,0.00,,,0.00,0.000000,,2013-01-11 16:52:00,
2013-01-11 08:22:00,27.0,17.0,-100.00,SSE,152,3.0,10.0,66,0.00,,,0.00,0.000000,,2013-01-11 17:22:00,
2013-01-11 08:33:00,27.0,17.0,-100.00,SSE,152,3.0,10.0,66,0.00,,,0.00,0.000000,,2013-01-11 17:33:00,
2013-01-11 08:43:00,27.0,17.0,-100.00,SSE,152,3.0,10.0,66,0.00,,,0.00,0.000000,,2013-01-11 17:43:00,
2013-01-11 08:53:00,27.0,17.0,-100.00,SSE,152,3.0,10.0,66,0.00,,,0.00,0.000000,,2013-01-11 17:53:00,
2013-01-11 09:23:00,28.0,20.0,-100.00,NE,46,3.0,8.0,70,0.00,,,0.00,0.000000,,2013-01-11 18:23:00,
2013-01-11 09:32:00,28.0,20.0,-100.00,NE,46,3.0,8.0,70,0.00,,,0.00,0.000000,,2013-01-11 18:32:00,
2013-01-11 09:43:00,28.0,20.0,-100.00,NE,46,3.0,8.0,70,0.00,,,0.00,0.000000,,2013-01-11 18:43:00,
2013-01-11 09:53:00,28.0,20.0,-100.00,NE,46,3.0,8.0,70,0.00,,,0.00,0.000000,,2013-01-11 18:53:00,
2013-01-11 10:22:00,30.0,21.0,-100.00,NE,39,6.0,13.0,68,0.00,,,0.00,0.000000,,2013-01-11 19:22:00,
2013-01-11 10:32:00,30.0,21.0,-100.00,NE,39,6.0,13.0,68,0.00,,,0.00,0.000000,,2013-01-11 19:32:00,
2013-01-11 10:42:00,30.0,21.0,-100.00,NE,39,6.0,13.0,68,0.00,,,0.00,0.000000,,2013-01-11 19:42:00,
2013-01-11 10:52:00,30.0,21.0,-100.00,NE,39,6.0,13.0,68,0.00,,,0.00,0.000000,,2013-01-11 19:52:00,
2013-01-11 11:22:00,30.0,20.0,-100.00,ESE,102,2.0,11.0,66,0.00,,,0.00,5.000000,,2013-01-11 20:22:00,
2013-01-11 11:33:00,30.0,20.0,-100.00,ESE,102,2.0,11.0,66,0.00,,,0.00,5.000000,,2013-01-11 20:33:00,
2013-01-11 11:43:00,30.0,20.0,-100.00,ESE,102,2.0,11.0,66,0.00,,,0.00,5.000000,,2013-01-11 20:43:00,
2013-01-11 11:52:00,30.0,20.0,-100.00,ESE,102,2.0,11.0,66,0.00,,,0.00,5.000000,,2013-01-11 20:52:00,
2013-01-11 12:23:00,31.0,23.0,-100.00,North,351,0.0,6.0,71,0.00,,,0.00,18.000000,,2013-01-11 21:23:00,
2013-01-11 12:32:00,31.0,23.0,-100.00,North,351,0.0,6.0,71,0.00,,,0.00,18.000000,,2013-01-11 21:32:00,
2013-01-11 12:42:00,31.0,23.0,-100.00,North,351,0.0,6.0,71,0.00,,,0.00,18.000000,,2013-01-11 21:42:00,
2013-01-11 12:52:00,31.0,23.0,-100.00,North,351,0.0,6.0,71,0.00,,,0.00,18.000000,,2013-01-11 21:52:00,
2013-01-11 13:22:00,35.0,23.0,-100.00,SSE,161,7.0,15.0,62,0.00,,,0.00,30.000000,,2013-01-11 22:22:00,
2013-01-11 13:33:00,35.0,23.0,-100.00,SSE,161,7.0,15.0,62,0.00,,,0.00,30.000000,,2013-01-11 22:33:00,
2013-01-11 13:42:00,35.0,23.0,-100.00,SSE,161,7.0,15.0,62,0.00,,,0.00,30.000000,,2013-01-11 22:42:00,
2013-01-11 13:52:00,35.0,23.0,-100.00,SSE,161,7.0,15.0,62,0.00,,,0.00,30.000000,,2013-01-11 22:52:00,
2013-01-11 14:22:00,34.0,22.0,-100.00,SSW,203,4.0,16.0,62,0.00,,,0.00,50.000000,,2013-01-11 23:22:00,
2013-01-11 14:32:00,34.0,22.0,-100.00,SSW,203,4.0,16.0,62,0.00,,,0.00,50.000000,,2013-01-11 23:32:00,
2013-01-11 14:42:00,34.0,22.0,-100.00,SSW,203,4.0,16.0,62,0.00,,,0.00,50.000000,,2013-01-11 23:42:00,
2013-01-11 14:53:00,34.0,22.0,-100.00,SSW,203,4.0,16.0,62,0.00,,,0.00,50.000000,,2013-01-11 23:53:00,
2013-01-11 15:22:00,35.0,24.0,-100.00,SE,125,5.0,9.0,63,0.00,,,0.00,71.000000,,2013-01-12 00:22:00,
2013-01-11 15:32:00,35.0,24.0,-100.00,SE,125,5.0,9.0,63,0.00,,,0.00,71.000000,,2013-01-12 00:32:00,
2013-01-11 15:42:00,35.0,24.0,-100.00,SE,125,5.0,9.0,63,0.00,,,0.00,71.000000,,2013-01-12 00:42:00,
2013-01-11 15:52:00,35.0,24.0,-100.00,SE,125,5.0,9.0,63,0.00,,,0.00,71.000000,,2013-01-12 00:52:00,
2013-01-11 16:22:00,34.0,22.0,-100.00,South,171,3.0,16.0,62,0.00,,,0.00,23.000000,,2013-01-12 01:22:00,
2013-01-11 16:32:00,34.0,22.0,-100.00,South,171,3.0,16.0,62,0.00,,,0.00,23.000000,,2013-01-12 01:32:00,
2013-01-11 16:42:00,34.0,22.0,-100.00,South,171,3.0,16.0,62,0.00,,,0.00,23.000000,,2013-01-12 01:42:00,
2013-01-11 16:52:00,34.0,22.0,-100.00,South,171,3.0,16.0,62,0.00,,,0.00,23.000000,,2013-01-12 01:52:00,
2013-01-11 17:22:00,29.0,21.0,-100.00,North,10,6.0,11.0,73,0.00,,,0.00,2.000000,,2013-01-12 02:22:00,
2013-01-11 17:32:00,29.0,21.0,-100.00,North,10,6.0,11.0,73,0.00,,,0.00,2.000000,,2013-01-12 02:32:00,
2013-01-11 17:42:00,29.0,21.0,-100.00,North,10,6.0,11.0,73,0.00,,,0.00,2.000000,,2013-01-12 02:42:00,
2013-01-11 17:52:00,29.0,21.0,-100.00,North,10,6.0,11.0,73,0.00,,,0.00,2.000000,,2013-01-12 02:52:00,
2013-01-11 18:22:00,29.0,23.0,-100.00,North,8,5.0,10.0,79,0.00,,,-99.99,0.000000,,2013-01-12 03:22:00,
2013-01-11 18:32:00,29.0,23.0,-100.00,North,8,5.0,10.0,79,0.00,,,-99.99,0.000000,,2013-01-12 03:32:00,
2013-01-11 18:42:00,29.0,23.0,-100.00,North,8,5.0,10.0,79,0.00,,,-99.99,0.000000,,2013-01-12 03:42:00,
2013-01-11 18:52:00,29.0,23.0,-100.00,North,8,5.0,10.0,79,0.00,,,-99.99,0.000000,,2013-01-12 03:52:00,
2013-01-11 19:12:00,30.0,24.0,-100.00,NE,37,4.0,8.0,79,0.00,,,0.00,0.000000,,2013-01-12 04:12:00,
2013-01-11 19:22:00,30.0,24.0,-100.00,NE,37,4.0,8.0,79,0.00,,,0.00,0.000000,,2013-01-12 04:22:00,
2013-01-11 19:32:00,30.0,24.0,-100.00,NE,37,4.0,8.0,79,0.00,,,0.00,0.000000,,2013-01-12 04:32:00,
2013-01-11 19:42:00,30.0,24.0,-100.00,NE,37,4.0,8.0,79,0.00,,,0.00,0.000000,,2013-01-12 04:42:00,
2013-01-11 19:52:00,30.0,24.0,-100.00,NE,37,4.0,8.0,79,0.00,,,0.00,0.000000,,2013-01-12 04:52:00,
2013-01-11 20:22:00,30.0,25.0,-100.00,NE,49,4.0,6.0,80,0.00,,,0.00,0.000000,,2013-01-12 05:22:00,
2013-01-11 20:32:00,30.0,25.0,-100.00,NE,49,4.0,6.0,80,0.00,,,0.00,0.000000,,2013-01-12 05:32:00,
2013-01-11 20:42:00,30.0,25.0,-100.00,NE,49,4.0,6.0,80,0.00,,,0.00,0.000000,,2013-01-12 05:42:00,
2013-01-11 20:52:00,30.0,25.0,-100.00,NE,49,4.0,6.0,80,0.00,,,0.00,0.000000,,2013-01-12 05:52:00,
2013-01-11 21:22:00,30.0,24.0,-100.00,East,98,2.0,7.0,78,0.00,,,0.00,0.000000,,2013-01-12 06:22:00,
2013-01-11 21:32:00,30.0,24.0,-100.00,East,98,2.0,7.0,78,0.00,,,0.00,0.000000,,2013-01-12 06:32:00,
2013-01-11 21:42:00,30.0,24.0,-100.00,East,98,2.0,7.0,78,0.00,,,0.00,0.000000,,2013-01-12 06:42:00,
2013-01-11 21:52:00,30.0,24.0,-100.00,East,98,2.0,7.0,78,0.00,,,0.00,0.000000,,2013-01-12 06:52:00,
2013-01-11 22:22:00,31.0,25.0,-100.00,NE,53,2.0,7.0,79,0.00,,,0.00,0.000000,,2013-01-12 07:22:00,
2013-01-11 22:32:00,31.0,25.0,-100.00,NE,53,2.0,7.0,79,0.00,,,0.00,0.000000,,2013-01-12 07:32:00,
2013-01-11 22:42:00,31.0,25.0,-100.00,NE,53,2.0,7.0,79,0.00,,,0.00,0.000000,,2013-01-12 07:42:00,
2013-01-11 22:52:00,31.0,25.0,-100.00,NE,53,2.0,7.0,79,0.00,,,0.00,0.000000,,2013-01-12 07:52:00,
2013-01-11 23:22:00,32.0,26.0,-100.00,South,190,4.0,9.0,79,0.00,,,0.00,0.000000,,2013-01-12 08:22:00,
2013-01-11 23:32:00,32.0,26.0,-100.00,South,190,4.0,9.0,79,0.00,,,0.00,0.000000,,2013-01-12 08:32:00,
2013-01-11 23:42:00,32.0,26.0,-100.00,South,190,4.0,9.0,79,0.00,,,0.00,0.000000,,2013-01-12 08:42:00,
2013-01-11 23:52:00,32.0,26.0,-100.00,South,190,4.0,9.0,79,0.00,,,0.00,0.000000,,2013-01-12 08:52:00,